Down Up Stop Top

TXC259
There are no active watches, warnings or advisories

Record high temperature 111.6°F Record low temperature 13.3°F Record high gust 49.5 mph Record high average 32.4 mph Record daily rain 4.23 in. Record low windchill 4.3°F Record high barometer 30.637 in. Record low barometer 28.496 in.
Daily high pressure 29.988 in. Daily low pressure 29.958 in. Daily low windchill 74.8°F Daily high heat index 80.1°F Daily high gust speed 16.1 mph SSE Daily high average speed 9.4 mph SSE
Welfare-Texas Weather
LAST READING AT TIME: 08:25 DATE: July 31 2014, time of next update: 08:30
Current WeatherDry Current Temperature 77.9°F (25.5°C) (Heat Index 77.8°F ), Apparent temp 76.0°F
Maximum Temperature (since midnight)81.1°F at: 00:00 Minimum Temperature (since midnight)74.8°F at: 06:21
Average windspeed (ten minute)2.7 mph Wind Direction (ten minute)S (188°)
Heat Index 77.8°F Maximum Gust (last hour)7.1 mph at: 07:59
Maximum Gust (since midnight)16.1 mph at: 01:55 Maximum 1 minute average (since midnight)9.4 mph at: 00:07
Rainfall (last hour)0.00 in. (0.0 mm) Rainfall (since midnight)0.00 in. (0.0 mm) ---
Rainfall This month 0.00 in. (0.0 mm) Rainfall To date this year 4.57 in. (116.0 mm)
Maximum rain per minute (last hour)0.00 in/min Maximum rain per hour (last 6 hours)0.00 in/hour
Yesterdays rainfall 0.00 in DewPoint 33.6°F (Wet Bulb :56.9°F )
Humidity 20 %, Humidex 74.4°F Barometer corrected to msl29.988 in. (1015.5 hPa)
Pressure change +0.03 in. (last hour) Trend (last hour)RISING SLOWLY
Pressure change (last 12 hours)+0.06 in Pressure change (last 6 hours)+0.03 in

This page is updated from recent data collected by a WMR200 weather station Use the Reload or Refresh facility on your browser to retrieve the latest data.


Click here for the last 24 hour graph
Click here for the last 48 hour graph
Click here for the last 72 hour graph
Click here for the month to date graph


Weather report/warning/Metars

SAN ANTONIO INTERNATIONAL  AIRPORT , TX, United States (KSAT) 29-32N 098-28W 243M
Jul 31, 2014 - 08:51 AM EDT / 2014.07.31 1251 UTC
Wind: from the S (180 degrees) at 3 MPH (3 KT):0
Visibility: 10 mile(s):0
Sky conditions: mostly cloudy
Temperature: 80.1 F (26.7 C)
Dew Point: 73.0 F (22.8 C)
Relative Humidity: 79%
Pressure (altimeter): 29.98 in. Hg (1015 hPa)
ob: KSAT 311251Z 18003KT 10SM BKN018 BKN250 27/23 A2998 RMK AO2 SLP130 T02670228
cycle: 13
NEW BRAUNFELS MUNICIPAL AIRPORT, TX, United States (KBAZ) 29-43N 98-03W 195M
Jul 31, 2014 - 09:11 AM EDT / 2014.07.31 1311 UTC
Wind: from the SSW (200 degrees) at 5 MPH (4 KT):0
Visibility: 5 mile(s):0
Sky conditions: mostly cloudy
Weather: haze
Temperature: 79.0 F (26.1 C)
Dew Point: 73.9 F (23.3 C)
Relative Humidity: 84%
Pressure (altimeter): 29.96 in. Hg (1014 hPa)
ob: KBAZ 311311Z 20004KT 5SM HZ BKN021 26/23 A2996 RMK AO2 T02610233
cycle: 13
Kerrville, Kerrville Municipal Airport/Louis Schreiner Field, TX, United States (KERV) 29-58N 099-05W
Jul 31, 2014 - 08:55 AM EDT / 2014.07.31 1255 UTC
Wind: from the S (180 degrees) at 5 MPH (4 KT):0
Visibility: 10 mile(s):0
Sky conditions: overcast
Temperature: 76.5 F (24.7 C)
Dew Point: 71.8 F (22.1 C)
Relative Humidity: 85%
Pressure (altimeter): 30.01 in. Hg (1016 hPa)
ob: KERV 311255Z AUTO 18004KT 10SM OVC016 25/22 A3001 RMK AO2 T02470221
cycle: 13
BANGOR INT'L AIRPORT, ME, United States (KBGR) 44-48N 068-49W 57M
Jul 31, 2014 - 08:53 AM EDT / 2014.07.31 1253 UTC
Wind: from the S (180 degrees) at 6 MPH (5 KT):0
Visibility: 10 mile(s):0
Sky conditions: partly cloudy
Temperature: 66.0 F (18.9 C)
Dew Point: 59.0 F (15.0 C)
Relative Humidity: 78%
Pressure (altimeter): 30.11 in. Hg (1019 hPa)
ob: KBGR 311253Z 18005KT 10SM SCT010 19/15 A3011 RMK AO2 SLP194 T01890150
cycle: 13



The data is logged at two minute intervals, but there is data recorded every minute.

Use the RELOAD facility on your browser to retrieve the latest data.

Click here for a daily update of the averages/extremes to date for the month


Created by "Weather Display" software version 10.37R Build 23 at this start time/date 06:34 6/14/2014